Search for airport 
image banner adimage banner adimage banner ad
image banner ad

7CA8 - Eisenhower Medical Center

Located in Rancho Mirage, United States

ICAO - 7CA8, IATA -

Data provided by Airmate  

General information

Coordinates: N33°45'51" W116°24'18"
Elevation is 234 feet MSL.
Magnetic variation is 13° East
View others Airports in California

Operational data

Special qualification required
Current time UTC:
Current local time:
Weather at : KPSP - Palm Springs Intl ( 12 km )
METAR: KPSP 141253Z 21003KT 10SM CLR 24/09 A2981 RMK AO2 SLP088 T02390094 $
TAF: KPSP 141129Z 1412/1512 VRB05KT P6SM FEW200 FM150000 33012G20KT P6SM FEW200 FM150700 VRB05KT P6SM FEW200
View NOTAMs / SUP AIP / TFR affecting this airport [VIEW]
Communications frequencies: [VIEW]

Runways:

Airport contact information

Address: Rancho Mirage United States

Satellite view of 7CA8